Terminal Aerodrome Forecast
Issued by NWS Cleveland, OH

Home | Current Version | Previous Version | Text Only | Print | Product List | Glossary Off
Versions: 1 2 3 4 5 6 7 8 9 10 11 12 13 14 15 16 17 18 19 20

000
FTUS41 KCLE 220533
TAFERI
TAF
KERI 220533Z 2206/2306 18004KT P6SM OVC045
     FM220800 18004KT 6SM BR OVC035
     FM221000 19007KT 5SM BR OVC025
      TEMPO 2212/2216 OVC012
     FM222100 20007KT P6SM OVC035
     FM230200 17006KT 5SM BR OVC015=

USA.gov is the U.S. government's official web portal to all federal, state and local government web resources and services.